Time;durP1;ratioP1;P1;durP2;ratioP2;P2;SDS_P1;SDS_P2;PMS_P1;PMS_P2;Temp;Humidity;BMP_temperature;BMP_pressure;BME280_temperature;BME280_humidity;BME280_pressure;Samples;Min_cycle;Max_cycle;Signal;HPM_P1;HPM_P2
2024/04/24 00:00:48;;;;;;;;;10.25;9.25;;;;;9.78;59.04;101130.84;5441329;26;43959;-58
2024/04/24 00:03:17;;;;;;;;;16.75;10.25;;;;;9.80;59.92;101138.69;5441896;26;67958;-60
2024/04/24 00:05:43;;;;;;;;;11.00;10.25;;;;;9.79;60.28;101131.72;5450465;26;44048;-59
2024/04/24 00:08:08;;;;;;;;;13.50;10.00;;;;;9.81;60.57;101137.75;5462359;26;66043;-59
2024/04/24 00:10:33;;;;;;;;;13.25;10.50;;;;;9.78;60.10;101133.47;5458436;25;44015;-59
2024/04/24 00:12:59;;;;;;;;;18.50;11.00;;;;;9.78;59.68;101123.00;5443775;26;43819;-59
2024/04/24 00:15:24;;;;;;;;;15.25;11.25;;;;;9.76;59.96;101124.78;5438169;25;43754;-59
2024/04/24 00:17:49;;;;;;;;;11.75;10.50;;;;;9.75;60.86;101122.22;5432357;26;74114;-60
2024/04/24 00:20:15;;;;;;;;;9.50;7.50;;;;;9.72;60.56;101115.28;5434664;25;67852;-59
2024/04/24 00:22:40;;;;;;;;;16.25;12.00;;;;;9.68;61.30;101114.50;5435901;25;58851;-58
2024/04/24 00:25:05;;;;;;;;;9.75;5.00;;;;;9.66;61.22;101102.31;5437400;25;43840;-59
2024/04/24 00:27:31;;;;;;;;;16.00;11.00;;;;;9.64;61.37;101101.50;5438663;26;48269;-59
2024/04/24 00:29:56;;;;;;;;;18.50;12.00;;;;;9.61;61.80;101102.38;5427739;26;61110;-59
2024/04/24 00:32:21;;;;;;;;;16.50;13.00;;;;;9.55;61.95;101096.44;5432691;26;58680;-59
2024/04/24 00:34:47;;;;;;;;;13.50;11.00;;;;;9.54;62.58;101100.75;5457277;26;54711;-59
2024/04/24 00:37:12;;;;;;;;;19.00;14.00;;;;;9.52;62.37;101092.09;5432262;26;59447;-59
2024/04/24 00:39:37;;;;;;;;;17.75;12.00;;;;;9.47;63.62;101093.91;5450665;26;57454;-61
2024/04/24 00:42:03;;;;;;;;;18.50;12.00;;;;;9.47;63.18;101086.97;5444243;26;43981;-61
2024/04/24 00:44:28;;;;;;;;;13.25;12.00;;;;;9.47;62.25;101088.69;5433347;26;67281;-61
2024/04/24 00:46:58;;;;;;;;;13.75;12.75;;;;;9.43;62.70;101085.28;5458181;26;73639;-61
2024/04/24 00:49:25;;;;;;;;;14.25;9.75;;;;;9.42;62.64;101077.47;5430419;25;44558;-62
2024/04/24 00:51:51;;;;;;;;;13.50;10.00;;;;;9.39;64.21;101078.38;5438416;26;43978;-62
2024/04/24 00:54:16;;;;;;;;;16.75;12.50;;;;;9.37;64.55;101074.94;5452691;26;72384;-62
2024/04/24 00:56:41;;;;;;;;;12.25;11.25;;;;;9.36;63.98;101067.97;5430183;26;75283;-60
2024/04/24 00:59:07;;;;;;;;;16.75;12.75;;;;;9.34;64.41;101072.38;5432214;26;71956;-60
2024/04/24 01:01:32;;;;;;;;;18.25;11.75;;;;;9.33;64.01;101075.88;5444185;25;61406;-59
2024/04/24 01:03:57;;;;;;;;;13.75;11.25;;;;;9.33;64.40;101073.28;5445948;25;70673;-57
2024/04/24 01:06:23;;;;;;;;;16.25;9.25;;;;;9.31;64.71;101083.75;5427934;26;74021;-60
2024/04/24 01:08:48;;;;;;;;;13.25;10.50;;;;;9.29;64.68;101072.44;5437028;26;67017;-57
2024/04/24 01:11:13;;;;;;;;;8.75;6.75;;;;;9.24;65.02;101063.84;5444921;26;61587;-57
2024/04/24 01:13:39;;;;;;;;;18.25;11.25;;;;;9.22;64.96;101059.50;5461097;26;62468;-59
2024/04/24 01:16:16;;;;;;;;;10.00;10.00;;;;;9.22;65.07;101064.72;5428632;26;66529;-58
2024/04/24 01:18:48;;;;;;;;;13.50;9.50;;;;;9.23;65.77;101050.81;5453347;26;44591;-57
2024/04/24 01:21:15;;;;;;;;;12.50;8.75;;;;;9.26;65.92;101055.97;5468082;25;44050;-58
2024/04/24 01:23:54;;;;;;;;;12.25;9.00;;;;;9.22;65.87;101056.91;5428331;26;73105;-60
2024/04/24 01:26:36;;;;;;;;;10.75;9.50;;;;;9.19;65.61;101050.00;5440006;26;44185;-59
2024/04/24 01:29:01;;;;;;;;;9.75;8.75;;;;;9.16;65.99;101051.78;5434930;26;43651;-62
2024/04/24 01:31:26;;;;;;;;;11.25;8.25;;;;;9.13;65.96;101053.53;5411137;26;67004;-60
2024/04/24 01:33:52;;;;;;;;;13.25;9.50;;;;;9.11;65.60;101046.63;5458171;25;72030;-60
2024/04/24 01:36:17;;;;;;;;;14.75;10.50;;;;;9.08;67.17;101059.72;5435161;25;48491;-60
2024/04/24 01:38:42;;;;;;;;;10.50;6.25;;;;;9.04;66.01;101048.47;5457759;26;71875;-60
2024/04/24 01:41:08;;;;;;;;;10.75;7.75;;;;;9.01;66.33;101051.16;5447335;25;68092;-58
2024/04/24 01:43:36;;;;;;;;;10.50;8.50;;;;;8.98;68.16;101048.59;5449267;26;70798;-61
2024/04/24 01:46:02;;;;;;;;;9.25;9.00;;;;;8.97;67.74;101048.59;5442663;25;44861;-59
2024/04/24 01:48:28;;;;;;;;;13.00;9.75;;;;;8.96;68.67;101052.09;5434895;26;43919;-59
2024/04/24 01:50:53;;;;;;;;;12.25;8.25;;;;;8.95;69.23;101043.41;5438636;25;68283;-60
2024/04/24 01:53:18;;;;;;;;;9.00;8.50;;;;;8.96;69.42;101049.47;5440474;26;68622;-59
2024/04/24 01:55:44;;;;;;;;;10.50;7.75;;;;;8.95;70.05;101040.78;5453965;26;72752;-59
2024/04/24 01:58:09;;;;;;;;;8.50;7.00;;;;;8.97;68.54;101041.63;5447859;26;67247;-58
2024/04/24 02:00:34;;;;;;;;;8.50;8.00;;;;;8.94;70.73;101052.09;5441247;26;68555;-59
2024/04/24 02:03:00;;;;;;;;;14.25;8.50;;;;;8.93;70.24;101045.19;5437400;25;43843;-59
2024/04/24 02:05:25;;;;;;;;;9.00;4.25;;;;;8.91;71.19;101045.19;5438911;26;44132;-59
2024/04/24 02:07:50;;;;;;;;;18.25;9.50;;;;;8.92;71.02;101049.53;5448960;26;57889;-59
2024/04/24 02:10:16;;;;;;;;;14.25;11.00;;;;;8.91;71.28;101039.97;5448225;25;66735;-59
2024/04/24 02:12:41;;;;;;;;;12.00;9.50;;;;;8.89;72.17;101030.47;5469163;26;69397;-59
2024/04/24 02:15:06;;;;;;;;;15.25;9.75;;;;;8.89;72.54;101025.25;5468923;26;74028;-59
2024/04/24 02:17:32;;;;;;;;;10.00;9.00;;;;;8.85;72.54;101026.16;5461036;25;68505;-59
2024/04/24 02:19:57;;;;;;;;;12.75;8.75;;;;;8.84;72.81;101024.44;5442763;25;58589;-59
2024/04/24 02:22:22;;;;;;;;;10.75;7.75;;;;;8.82;73.59;101029.69;5460958;25;66972;-60
2024/04/24 02:27:31;;;;;;;;;10.25;9.25;;;;;8.88;72.13;101026.09;5455395;26;44572;-58
2024/04/24 02:29:57;;;;;;;;;13.50;8.75;;;;;8.88;72.57;101028.72;5442139;26;66325;-58
2024/04/24 02:32:22;;;;;;;;;8.75;5.75;;;;;8.84;72.25;101032.28;5456281;26;69788;-56
2024/04/24 02:34:47;;;;;;;;;9.25;7.25;;;;;8.79;73.95;101018.44;5434739;26;70110;-57
2024/04/24 02:37:13;;;;;;;;;8.00;8.00;;;;;8.79;72.63;101029.72;5436754;26;71912;-57
2024/04/24 02:39:38;;;;;;;;;13.25;9.00;;;;;8.79;73.02;101028.88;5443401;26;43856;-58
2024/04/24 02:42:04;;;;;;;;;13.50;8.25;;;;;8.76;74.08;101023.69;5443235;25;70765;-59
2024/04/24 02:44:29;;;;;;;;;8.75;8.50;;;;;8.74;72.73;101015.88;5434657;26;60566;-59
2024/04/24 02:46:54;;;;;;;;;10.75;8.25;;;;;8.72;74.45;101028.09;5441741;26;68463;-59
2024/04/24 02:49:20;;;;;;;;;15.25;8.75;;;;;8.72;74.82;101021.09;5455893;25;68183;-59
2024/04/24 02:51:45;;;;;;;;;11.25;7.00;;;;;8.71;74.25;101019.41;5433413;26;71575;-58
2024/04/24 02:54:10;;;;;;;;;12.75;8.75;;;;;8.71;74.89;101022.00;5434320;26;64374;-59
2024/04/24 02:56:36;;;;;;;;;8.50;6.25;;;;;8.70;73.79;101014.22;5434119;26;70286;-59
2024/04/24 02:59:01;;;;;;;;;11.00;7.50;;;;;8.70;73.64;101006.38;5447804;25;44126;-60
2024/04/24 03:01:26;;;;;;;;;8.50;8.25;;;;;8.68;73.35;101014.22;5433653;26;72801;-58
2024/04/24 03:03:51;;;;;;;;;9.00;6.50;;;;;8.63;74.44;101007.34;5434208;26;71712;-58
2024/04/24 03:06:17;;;;;;;;;16.00;6.25;;;;;8.55;73.60;101000.50;5440966;26;72817;-61
2024/04/24 03:08:42;;;;;;;;;7.00;5.50;;;;;8.56;75.55;101006.56;5459657;25;43792;-57
2024/04/24 03:11:07;;;;;;;;;12.25;5.50;;;;;8.58;74.85;101003.94;5445322;25;49667;-60
2024/04/24 03:13:33;;;;;;;;;10.25;8.00;;;;;8.56;74.40;101006.56;5441804;25;58646;-60
2024/04/24 03:15:58;;;;;;;;;1.75;1.75;;;;;8.53;75.19;101009.22;5429823;26;54876;-60
2024/04/24 03:18:23;;;;;;;;;9.50;6.00;;;;;8.53;73.69;101006.59;5452852;26;62197;-59
2024/04/24 03:20:49;;;;;;;;;10.50;4.50;;;;;8.51;74.00;100995.34;5457271;26;45601;-61
2024/04/24 03:23:14;;;;;;;;;8.50;5.25;;;;;8.51;75.08;100998.81;5443262;25;45542;-59
2024/04/24 03:25:40;;;;;;;;;11.75;8.25;;;;;8.51;74.02;100992.72;5454971;25;63201;-60
2024/04/24 03:28:05;;;;;;;;;8.50;7.00;;;;;8.53;75.01;100988.34;5439112;26;43978;-60
2024/04/24 03:30:30;;;;;;;;;4.75;4.75;;;;;8.54;74.54;100990.94;5460549;26;55608;-62
2024/04/24 03:32:56;;;;;;;;;8.00;4.25;;;;;8.55;73.93;100984.84;5463490;25;73999;-61
2024/04/24 03:35:21;;;;;;;;;9.50;7.50;;;;;8.52;74.62;100981.44;5446314;25;43829;-62
2024/04/24 03:37:46;;;;;;;;;7.00;5.00;;;;;8.52;73.85;100979.69;5457273;25;67118;-61
2024/04/24 03:40:12;;;;;;;;;10.25;5.00;;;;;8.52;74.06;100982.28;5431353;25;69060;-60
2024/04/24 03:42:37;;;;;;;;;7.75;4.75;;;;;8.57;75.17;100983.94;5442056;25;45793;-61
2024/04/24 03:45:03;;;;;;;;;9.25;5.00;;;;;8.54;74.46;100975.28;5429951;26;43874;-61
2024/04/24 03:47:28;;;;;;;;;8.00;4.75;;;;;8.54;74.50;100983.13;5438185;26;43803;-60
2024/04/24 03:49:53;;;;;;;;;4.50;4.00;;;;;8.52;74.45;100984.88;5451867;26;67347;-60
2024/04/24 03:52:20;;;;;;;;;8.00;7.25;;;;;8.56;75.13;100977.88;5439953;26;55493;-60
2024/04/24 03:54:45;;;;;;;;;12.00;5.00;;;;;8.56;74.08;100977.88;5441093;25;44453;-59
2024/04/24 03:57:10;;;;;;;;;11.00;5.75;;;;;8.55;73.91;100968.31;5445060;25;67105;-59
2024/04/24 03:59:36;;;;;;;;;8.50;5.00;;;;;8.56;73.29;100964.84;5434621;26;44130;-61
2024/04/24 04:02:01;;;;;;;;;3.25;3.00;;;;;8.52;73.15;100958.81;5437862;26;74200;-60
2024/04/24 04:04:26;;;;;;;;;4.75;3.00;;;;;8.51;74.51;100969.25;5448338;25;70968;-60
2024/04/24 04:06:52;;;;;;;;;5.25;3.50;;;;;8.49;73.65;100976.25;5450737;26;54410;-60
2024/04/24 04:09:17;;;;;;;;;7.50;3.25;;;;;8.44;74.40;100970.22;5453514;25;72121;-60
2024/04/24 04:11:42;;;;;;;;;8.00;5.00;;;;;8.42;74.29;100964.16;5451210;26;45987;-60
2024/04/24 04:14:07;;;;;;;;;8.25;4.50;;;;;8.40;74.32;100964.16;5437522;26;67315;-60
2024/04/24 04:16:33;;;;;;;;;6.25;3.75;;;;;8.43;74.31;100968.50;5441463;26;66397;-60
2024/04/24 04:18:58;;;;;;;;;5.00;3.50;;;;;8.43;73.46;100978.94;5438734;26;43971;-59
2024/04/24 04:21:24;;;;;;;;;6.75;3.00;;;;;8.41;73.16;100978.06;5427479;26;45797;-59
2024/04/24 04:23:49;;;;;;;;;5.75;3.50;;;;;8.41;72.78;100981.56;5430760;26;68992;-59
2024/04/24 04:26:14;;;;;;;;;6.50;4.50;;;;;8.40;73.79;100974.59;5431428;26;57255;-60
2024/04/24 04:28:39;;;;;;;;;9.00;5.00;;;;;8.41;73.63;100978.06;5442094;25;70850;-59
2024/04/24 04:31:05;;;;;;;;;9.50;7.00;;;;;8.40;73.55;100971.13;5435911;26;69598;-59
2024/04/24 04:33:31;;;;;;;;;8.00;6.00;;;;;8.38;73.01;100984.19;5429755;26;59848;-59
2024/04/24 04:35:56;;;;;;;;;8.75;3.75;;;;;8.35;72.75;100979.88;5455019;26;43818;-59
2024/04/24 04:38:21;;;;;;;;;4.50;3.00;;;;;8.32;73.55;100974.72;5456332;26;44156;-59
2024/04/24 04:40:47;;;;;;;;;4.50;3.50;;;;;8.31;72.42;100975.59;5463318;25;45924;-59
2024/04/24 04:43:12;;;;;;;;;4.75;3.25;;;;;8.30;72.18;100979.06;5460520;25;71915;-60
2024/04/24 04:45:37;;;;;;;;;5.50;4.00;;;;;8.30;72.54;100984.28;5456227;25;68343;-61
2024/04/24 04:48:08;;;;;;;;;5.00;2.00;;;;;8.24;72.17;100970.50;5452979;26;44168;-61
2024/04/24 04:50:33;;;;;;;;;6.50;5.00;;;;;8.23;73.16;100974.81;5478350;25;45888;-61
2024/04/24 04:52:59;;;;;;;;;4.25;3.50;;;;;8.24;72.91;100979.16;5434150;25;65347;-61
2024/04/24 04:55:24;;;;;;;;;3.75;3.50;;;;;8.28;73.25;100982.59;5464801;26;43981;-60
2024/04/24 04:57:50;;;;;;;;;4.50;3.00;;;;;8.29;72.73;100985.19;5448397;25;44222;-61
2024/04/24 05:00:16;;;;;;;;;4.00;1.00;;;;;8.28;72.40;100990.41;5455419;26;45024;-60
2024/04/24 05:02:42;;;;;;;;;2.00;2.00;;;;;8.27;72.81;100976.53;5434353;25;43903;-59
2024/04/24 05:05:07;;;;;;;;;3.00;2.25;;;;;8.30;71.38;100986.03;5448887;26;43688;-62
2024/04/24 05:07:33;;;;;;;;;4.75;2.75;;;;;8.27;71.54;100973.03;5454154;26;71326;-60
2024/04/24 05:09:58;;;;;;;;;3.00;2.00;;;;;8.31;71.53;100979.94;5446642;26;58467;-58
2024/04/24 05:12:23;;;;;;;;;2.75;2.25;;;;;8.31;72.81;100980.81;5435857;25;43781;-59
2024/04/24 05:14:50;;;;;;;;;3.25;2.00;;;;;8.32;72.27;100982.53;5461791;25;68209;-61
2024/04/24 05:17:16;;;;;;;;;3.25;2.00;;;;;8.30;71.32;100976.47;5461072;26;44018;-59
2024/04/24 05:19:41;;;;;;;;;3.00;3.00;;;;;8.33;72.38;100972.97;5431306;25;72100;-61
2024/04/24 05:22:08;;;;;;;;;6.50;2.00;;;;;8.35;72.63;100968.59;5451580;26;47642;-61
2024/04/24 05:24:33;;;;;;;;;4.00;2.50;;;;;8.38;71.72;100972.91;5427660;26;43805;-61
2024/04/24 05:29:42;;;;;;;;;5.75;4.00;;;;;8.49;71.89;100971.03;5445442;26;43748;-59
2024/04/24 05:32:07;;;;;;;;;2.00;1.75;;;;;8.51;72.24;100971.88;5442946;26;70560;-61
2024/04/24 05:34:33;;;;;;;;;9.25;3.75;;;;;8.54;71.76;100966.63;5430348;26;69621;-60
2024/04/24 05:36:58;;;;;;;;;6.00;3.75;;;;;8.56;71.48;100972.66;5442907;26;71950;-58
2024/04/24 05:39:23;;;;;;;;;3.75;3.00;;;;;8.57;71.54;100970.91;5462419;26;45818;-61
2024/04/24 05:41:49;;;;;;;;;3.75;2.00;;;;;8.53;70.96;100973.59;5430652;26;56457;-59
2024/04/24 05:44:14;;;;;;;;;2.75;2.75;;;;;8.46;70.44;100969.31;5463456;25;43947;-59
2024/04/24 05:46:40;;;;;;;;;2.75;2.00;;;;;8.43;70.60;100968.50;5436451;26;43959;-55
2024/04/24 05:49:05;;;;;;;;;8.00;2.25;;;;;8.43;71.36;100969.38;5449977;26;45667;-55
2024/04/24 05:51:30;;;;;;;;;5.00;2.00;;;;;8.45;70.87;100966.75;5459307;25;57986;-57
2024/04/24 05:53:55;;;;;;;;;2.00;2.00;;;;;8.43;71.31;100966.78;5462830;25;60299;-57
2024/04/24 05:56:21;;;;;;;;;7.00;3.00;;;;;8.43;70.42;100963.28;5453428;25;44088;-57
2024/04/24 05:58:46;;;;;;;;;3.00;2.00;;;;;8.45;70.29;100967.59;5439460;26;60149;-56
2024/04/24 06:01:12;;;;;;;;;4.75;3.00;;;;;8.47;70.19;100952.78;5460411;25;44022;-58
2024/04/24 06:03:37;;;;;;;;;4.00;3.00;;;;;8.47;70.41;100950.19;5457817;26;43803;-58
2024/04/24 06:06:03;;;;;;;;;3.50;3.00;;;;;8.47;70.39;100950.19;5441840;25;70702;-50
2024/04/24 06:08:28;;;;;;;;;3.75;3.75;;;;;8.50;70.67;100954.50;5459588;26;45055;-58
2024/04/24 06:10:53;;;;;;;;;6.50;3.25;;;;;8.50;70.84;100950.16;5440444;25;56420;-60
2024/04/24 06:13:19;;;;;;;;;6.00;4.75;;;;;8.49;70.75;100961.44;5454455;26;44013;-60
2024/04/24 06:15:44;;;;;;;;;13.50;9.75;;;;;8.47;70.66;100954.56;5445674;26;59184;-53
2024/04/24 06:18:09;;;;;;;;;20.50;14.75;;;;;8.48;71.82;100956.25;5444659;26;63685;-61
2024/04/24 06:20:35;;;;;;;;;21.75;19.50;;;;;8.51;70.87;100956.22;5437541;25;72002;-61
2024/04/24 06:23:00;;;;;;;;;11.00;9.00;;;;;8.53;71.46;100954.44;5459267;25;49541;-62
2024/04/24 06:25:25;;;;;;;;;11.75;11.00;;;;;8.59;71.79;100959.59;5460274;26;59188;-60
2024/04/24 06:27:51;;;;;;;;;9.50;9.00;;;;;8.63;71.73;100958.66;5463247;25;45218;-60
2024/04/24 06:30:16;;;;;;;;;2.25;0.00;;;;;8.71;71.67;100966.34;5434766;26;44167;-60
2024/04/24 06:32:41;;;;;;;;;9.00;5.00;;;;;8.75;71.33;100960.22;5444364;26;43946;-61
2024/04/24 06:35:07;;;;;;;;;4.00;4.00;;;;;8.76;71.39;100959.31;5448795;25;71577;-61
2024/04/24 06:37:32;;;;;;;;;4.00;4.00;;;;;8.79;71.00;100956.66;5457431;26;74218;-65
2024/04/24 06:39:57;;;;;;;;;8.25;4.50;;;;;8.87;71.24;100959.13;5441505;25;68911;-65
2024/04/24 06:42:22;;;;;;;;;6.25;4.75;;;;;8.89;71.45;100953.00;5451758;25;70144;-61
2024/04/24 06:44:48;;;;;;;;;4.25;3.25;;;;;8.91;70.91;100955.59;5460665;25;71999;-61
2024/04/24 06:47:13;;;;;;;;;3.50;0.25;;;;;8.90;70.79;100951.25;5485739;25;45581;-61
2024/04/24 06:49:39;;;;;;;;;5.75;3.00;;;;;8.91;69.40;100955.59;5461950;26;72003;-61
2024/04/24 06:52:04;;;;;;;;;10.00;3.00;;;;;8.93;70.83;100956.44;5456309;26;44052;-61
2024/04/24 06:54:30;;;;;;;;;10.50;4.00;;;;;8.96;69.32;100948.56;5458265;25;44187;-61
2024/04/24 06:56:56;;;;;;;;;6.00;6.00;;;;;8.99;69.40;100951.09;5446359;26;43926;-62
2024/04/24 06:59:22;;;;;;;;;10.50;5.00;;;;;9.02;70.79;100945.84;5464384;26;45102;-61
2024/04/24 07:01:47;;;;;;;;;5.25;4.00;;;;;9.06;69.79;100946.63;5447718;26;43703;-62
2024/04/24 07:04:13;;;;;;;;;8.00;5.00;;;;;9.12;70.16;100951.78;5456351;26;73017;-62
2024/04/24 07:06:38;;;;;;;;;2.00;2.00;;;;;9.17;69.30;100941.22;5467200;26;43917;-61
2024/04/24 07:09:04;;;;;;;;;3.00;2.75;;;;;9.21;69.06;100942.91;5444584;25;71888;-62
2024/04/24 07:11:29;;;;;;;;;4.75;3.50;;;;;9.27;69.14;100937.56;5449237;26;43882;-65
2024/04/24 07:13:54;;;;;;;;;3.00;3.00;;;;;9.32;68.95;100936.59;5440285;25;43686;-65
2024/04/24 07:16:20;;;;;;;;;8.75;2.00;;;;;9.35;69.07;100932.19;5463070;26;73086;-69
2024/04/24 07:18:45;;;;;;;;;4.25;4.00;;;;;9.44;68.58;100940.72;5465513;26;44015;-69
2024/04/24 07:21:10;;;;;;;;;5.00;3.00;;;;;9.45;67.49;100946.81;5467960;25;43787;-62
2024/04/24 07:23:36;;;;;;;;;9.25;4.00;;;;;9.46;67.92;100932.88;5464596;26;72741;-62
2024/04/24 07:26:01;;;;;;;;;4.50;1.00;;;;;9.48;67.15;100945.00;5460316;26;68848;-62
2024/04/24 07:28:26;;;;;;;;;3.25;2.50;;;;;9.50;66.54;100935.38;5467291;25;43833;-61
2024/04/24 07:30:52;;;;;;;;;5.00;2.75;;;;;9.50;66.93;100937.97;5466426;25;67859;-61
2024/04/24 07:33:17;;;;;;;;;4.25;2.00;;;;;9.51;65.62;100933.63;5466852;25;52924;-62
2024/04/24 07:35:43;;;;;;;;;5.00;3.75;;;;;9.55;65.72;100935.28;5466955;25;44581;-60
2024/04/24 07:38:10;;;;;;;;;4.25;3.00;;;;;9.61;66.28;100934.31;5467266;25;43741;-61
2024/04/24 07:40:36;;;;;;;;;1.75;1.75;;;;;9.67;65.62;100932.44;5465319;25;43993;-61
2024/04/24 07:43:02;;;;;;;;;4.50;3.00;;;;;9.75;65.15;100939.25;5467405;25;43888;-62
2024/04/24 07:45:27;;;;;;;;;5.25;3.75;;;;;9.79;64.73;100931.34;5464781;26;46137;-61
2024/04/24 07:47:53;;;;;;;;;4.00;3.00;;;;;9.87;65.61;100941.63;5468275;25;43591;-60
2024/04/24 07:50:19;;;;;;;;;11.00;3.00;;;;;9.89;64.48;100937.22;5467845;25;43914;-61
2024/04/24 07:52:44;;;;;;;;;6.25;4.00;;;;;9.85;63.94;100939.03;5449103;26;44069;-62
2024/04/24 07:55:09;;;;;;;;;5.00;2.25;;;;;9.87;64.11;100933.78;5430311;26;45742;-62
2024/04/24 07:57:35;;;;;;;;;5.25;2.00;;;;;9.91;64.83;100930.19;5429617;26;68674;-62
2024/04/24 08:00:00;;;;;;;;;2.00;2.00;;;;;9.94;63.17;100934.53;5430830;26;44005;-62
2024/04/24 08:02:25;;;;;;;;;3.25;2.00;;;;;9.89;63.24;100942.44;5460992;26;43809;-62
2024/04/24 08:04:51;;;;;;;;;5.50;3.00;;;;;9.87;63.58;100934.63;5466593;25;52273;-62
2024/04/24 08:07:16;;;;;;;;;4.00;2.00;;;;;9.88;63.46;100935.53;5465488;25;66280;-60
2024/04/24 08:09:41;;;;;;;;;8.25;4.25;;;;;9.86;63.28;100924.22;5458804;25;67388;-60
2024/04/24 08:12:07;;;;;;;;;8.50;2.75;;;;;9.85;62.98;100917.28;5469520;25;69633;-63
2024/04/24 08:14:32;;;;;;;;;10.00;3.00;;;;;9.93;62.32;100919.72;5466820;25;43820;-62
2024/04/24 08:16:57;;;;;;;;;4.00;3.00;;;;;10.06;63.42;100908.13;5464550;25;68539;-67
2024/04/24 08:19:23;;;;;;;;;3.00;2.75;;;;;10.18;62.21;100925.25;5464312;26;61024;-60
2024/04/24 08:21:48;;;;;;;;;5.00;2.25;;;;;10.23;61.37;100920.78;5454761;25;72786;-62
2024/04/24 08:24:13;;;;;;;;;2.50;2.50;;;;;10.29;60.53;100912.81;5443862;25;74260;-62
2024/04/24 08:26:39;;;;;;;;;5.00;2.00;;;;;10.41;60.35;100907.34;5440965;26;72079;-62
2024/04/24 08:29:04;;;;;;;;;3.00;3.00;;;;;10.54;60.50;100914.91;5436345;26;44003;-62
2024/04/24 08:31:29;;;;;;;;;6.25;2.25;;;;;10.58;59.28;100917.38;5451610;26;64981;-59
2024/04/24 08:33:55;;;;;;;;;3.00;2.00;;;;;10.57;59.44;100918.31;5463486;25;58282;-59
2024/04/24 08:36:20;;;;;;;;;5.75;3.00;;;;;10.61;59.55;100914.69;5461319;25;43937;-62
2024/04/24 08:38:45;;;;;;;;;6.50;3.00;;;;;10.66;58.89;100914.59;5460116;26;67809;-60
2024/04/24 08:41:12;;;;;;;;;3.25;2.50;;;;;10.66;58.72;100911.09;5452424;25;43980;-60
2024/04/24 08:43:38;;;;;;;;;2.00;2.00;;;;;10.71;58.92;100899.66;5458656;26;43760;-60
2024/04/24 08:46:04;;;;;;;;;7.00;1.00;;;;;10.83;58.68;100898.47;5463427;25;43984;-60
2024/04/24 08:48:30;;;;;;;;;2.75;2.50;;;;;10.87;58.30;100900.13;5458709;26;44147;-60
2024/04/24 08:51:00;;;;;;;;;3.00;2.25;;;;;10.98;58.83;100905.09;5463667;25;43894;-59
2024/04/24 08:53:30;;;;;;;;;6.50;2.25;;;;;11.02;58.54;100901.47;5466192;25;43917;-60
2024/04/24 08:55:58;;;;;;;;;4.25;2.75;;;;;11.02;57.89;100896.22;5458549;25;43827;-60
2024/04/24 08:58:24;;;;;;;;;3.75;2.75;;;;;11.00;57.47;100909.38;5432171;25;43897;-59
2024/04/24 09:00:52;;;;;;;;;4.50;3.00;;;;;10.97;57.50;100901.59;5450355;25;43931;-59
2024/04/24 09:03:23;;;;;;;;;2.50;1.75;;;;;10.96;56.70;100906.84;5450800;26;43832;-57
2024/04/24 09:05:49;;;;;;;;;2.50;2.00;;;;;10.87;56.57;100894.88;5440164;26;45173;-58
2024/04/24 09:08:15;;;;;;;;;3.25;1.75;;;;;10.82;55.42;100888.91;5427605;26;62610;-57
2024/04/24 09:10:40;;;;;;;;;6.00;2.00;;;;;10.69;54.56;100893.56;5441528;25;44258;-57
2024/04/24 09:13:06;;;;;;;;;2.00;2.00;;;;;10.56;54.70;100900.00;5463528;25;44760;-60
2024/04/24 09:15:32;;;;;;;;;4.75;3.00;;;;;10.46;55.63;100904.59;5398274;26;44026;-60
2024/04/24 09:17:57;;;;;;;;;4.25;4.00;;;;;10.52;56.08;100898.38;5461969;26;65252;-60
2024/04/24 09:20:24;;;;;;;;;5.25;3.25;;;;;10.62;56.03;100892.00;5442395;25;51102;-60
2024/04/24 09:22:49;;;;;;;;;4.00;2.75;;;;;10.72;55.96;100888.25;5450250;25;43880;-60
2024/04/24 09:25:14;;;;;;;;;3.75;2.25;;;;;10.79;54.82;100881.97;5432070;25;62299;-61
2024/04/24 09:27:40;;;;;;;;;5.00;3.00;;;;;10.90;54.58;100888.69;5456389;26;52338;-59
2024/04/24 09:30:05;;;;;;;;;4.75;2.25;;;;;10.92;53.25;100876.41;5447151;25;67248;-60
2024/04/24 09:32:31;;;;;;;;;4.75;2.50;;;;;10.86;52.96;100874.81;5455411;26;46009;-59
2024/04/24 09:34:56;;;;;;;;;2.50;2.50;;;;;10.86;53.37;100882.69;5439925;26;53071;-59
2024/04/24 09:37:23;;;;;;;;;4.25;1.50;;;;;10.82;52.04;100876.66;5464852;25;67449;-60
2024/04/24 09:39:48;;;;;;;;;0.50;0.00;;;;;10.77;51.54;100875.91;5463111;25;45642;-60
2024/04/24 09:42:14;;;;;;;;;2.00;2.00;;;;;10.77;51.59;100882.94;5452127;25;74274;-59
2024/04/24 09:44:43;;;;;;;;;2.00;2.00;;;;;10.81;51.31;100867.09;5459973;25;43905;-59
2024/04/24 09:47:08;;;;;;;;;2.75;2.00;;;;;10.90;51.92;100879.06;5426825;26;44283;-61
2024/04/24 09:49:36;;;;;;;;;1.00;1.00;;;;;10.92;51.76;100877.28;5456832;26;55923;-59
2024/04/24 09:52:02;;;;;;;;;1.00;1.00;;;;;10.89;50.82;100879.09;5452469;26;44034;-60
2024/04/24 09:54:27;;;;;;;;;4.00;1.50;;;;;10.81;50.81;100876.69;5452202;26;43911;-59
2024/04/24 09:56:59;;;;;;;;;6.25;2.50;;;;;10.74;51.86;100883.84;5465187;25;43857;-60
2024/04/24 09:59:28;;;;;;;;;3.00;2.00;;;;;10.70;51.68;100881.38;5451449;26;43778;-60
2024/04/24 10:01:59;;;;;;;;;3.25;1.00;;;;;10.66;51.61;100883.19;5466354;25;43984;-60
2024/04/24 10:04:27;;;;;;;;;4.25;3.00;;;;;10.76;51.81;100882.03;5436520;26;44375;-59
2024/04/24 10:06:54;;;;;;;;;5.00;2.00;;;;;10.91;50.48;100885.19;5428794;26;64009;-59
2024/04/24 10:09:22;;;;;;;;;4.00;3.00;;;;;11.01;50.99;100868.31;5441841;26;44047;-60
2024/04/24 10:11:52;;;;;;;;;4.00;3.00;;;;;11.19;50.68;100867.84;5462641;25;44708;-61
2024/04/24 10:14:20;;;;;;;;;2.00;2.00;;;;;11.28;48.96;100871.97;5465074;25;43926;-63
2024/04/24 10:16:48;;;;;;;;;3.75;1.00;;;;;11.42;49.18;100874.22;5466605;25;43943;-59
2024/04/24 10:19:15;;;;;;;;;4.25;1.50;;;;;11.45;48.69;100874.09;5466162;26;53780;-61
2024/04/24 10:21:40;;;;;;;;;2.75;1.00;;;;;11.47;47.79;100858.34;5458489;25;70014;-58
2024/04/24 10:24:06;;;;;;;;;4.25;2.00;;;;;11.66;47.85;100864.75;5459888;25;43882;-60
2024/04/24 10:26:32;;;;;;;;;3.50;1.75;;;;;11.75;46.46;100856.59;5418420;26;44070;-60
2024/04/24 10:28:59;;;;;;;;;1.00;1.00;;;;;11.78;46.68;100853.06;5463539;26;43836;-59
2024/04/24 10:31:24;;;;;;;;;2.00;1.00;;;;;11.78;46.16;100856.53;5442727;25;44842;-61
2024/04/24 10:33:50;;;;;;;;;4.00;2.00;;;;;11.76;46.14;100849.63;5413427;26;65283;-61
2024/04/24 10:36:15;;;;;;;;;2.50;2.00;;;;;11.75;46.43;100848.75;5429035;26;56127;-61
2024/04/24 10:38:46;;;;;;;;;1.00;1.00;;;;;11.74;46.45;100844.44;5413498;26;72770;-61
2024/04/24 10:41:12;;;;;;;;;2.25;2.00;;;;;11.75;46.18;100833.00;5452507;25;46354;-62
2024/04/24 10:43:40;;;;;;;;;2.00;2.00;;;;;11.76;46.28;100842.63;5447677;26;44134;-62
2024/04/24 10:46:06;;;;;;;;;3.00;2.00;;;;;11.75;46.05;100834.78;5429815;26;43937;-59
2024/04/24 10:49:05;;;;;;;;;3.00;2.25;;;;;11.75;46.71;100838.25;5439995;26;43775;-62
2024/04/24 10:51:32;;;;;;;;;3.00;1.25;;;;;11.75;46.14;100846.13;5422276;25;44060;-60
2024/04/24 10:54:17;;;;;;;;;5.00;3.00;;;;;11.81;46.64;100841.59;5467892;26;43714;-61
2024/04/24 10:56:44;;;;;;;;;4.50;1.50;;;;;11.84;46.64;100836.28;5429656;26;44013;-61
2024/04/24 10:59:10;;;;;;;;;3.75;3.00;;;;;11.83;46.47;100826.69;5444807;26;44093;-61
2024/04/24 11:01:35;;;;;;;;;3.00;2.00;;;;;11.88;46.16;100840.50;5448520;25;45331;-62
2024/04/24 11:04:03;;;;;;;;;2.00;2.00;;;;;11.91;46.18;100828.19;5448216;25;44021;-61
2024/04/24 11:06:29;;;;;;;;;1.25;1.25;;;;;11.91;46.32;100830.81;5448872;26;43912;-63
2024/04/24 11:08:57;;;;;;;;;1.50;1.50;;;;;11.89;45.75;100829.97;5454692;25;44130;-64
2024/04/24 11:11:23;;;;;;;;;1.50;1.50;;;;;11.90;46.12;100839.59;5450527;25;45021;-61
2024/04/24 11:14:02;;;;;;;;;2.50;2.00;;;;;11.92;46.17;100836.94;5441745;26;43923;-62
2024/04/24 11:16:27;;;;;;;;;3.00;0.00;;;;;12.02;45.47;100837.50;5449320;26;45387;-60
2024/04/24 11:18:53;;;;;;;;;6.25;2.00;;;;;12.15;45.56;100833.59;5443882;26;44186;-62
2024/04/24 11:21:25;;;;;;;;;1.00;1.00;;;;;12.26;45.44;100830.63;5454937;25;44689;-62
2024/04/24 11:23:56;;;;;;;;;2.25;2.25;;;;;12.30;45.53;100825.19;5443101;25;44429;-63
2024/04/24 11:26:34;;;;;;;;;4.50;3.00;;;;;12.30;45.58;100827.81;5446103;26;44187;-62